Time;durP1;ratioP1;P1;durP2;ratioP2;P2;SDS_P1;SDS_P2;PMS_P1;PMS_P2;Temp;Humidity;BMP_temperature;BMP_pressure;BME280_temperature;BME280_humidity;BME280_pressure;Samples;Min_cycle;Max_cycle;Signal;HPM_P1;HPM_P2
2024/01/08 00:01:49;;;;;;;2.25;1.58;;;;;;;;;;5014531;28;20030;-61
2024/01/08 00:04:15;;;;;;;1.67;1.50;;;;;;;;;;5011941;28;20037;-61
2024/01/08 00:06:41;;;;;;;1.63;1.52;;;;;;;;;;5022719;28;20025;-62
2024/01/08 00:09:07;;;;;;;1.88;1.40;;;;;;;;;;5014294;28;20061;-62
2024/01/08 00:11:33;;;;;;;2.30;1.60;;;;;;;;;;5005485;28;20057;-61
2024/01/08 00:13:59;;;;;;;1.88;1.33;;;;;;;;;;5014184;28;20038;-61
2024/01/08 00:16:25;;;;;;;2.10;1.63;;;;;;;;;;5013905;28;20083;-61
2024/01/08 00:18:51;;;;;;;1.75;1.20;;;;;;;;;;5014505;28;20030;-61
2024/01/08 00:21:17;;;;;;;1.88;0.95;;;;;;;;;;5014065;28;20104;-61
2024/01/08 00:23:43;;;;;;;1.10;0.95;;;;;;;;;;5012676;28;20172;-61
2024/01/08 00:26:10;;;;;;;2.08;0.93;;;;;;;;;;5014145;28;20026;-61
2024/01/08 00:28:36;;;;;;;1.67;1.00;;;;;;;;;;5005772;28;20042;-61
2024/01/08 00:31:02;;;;;;;1.20;1.00;;;;;;;;;;5012633;28;20034;-61
2024/01/08 00:33:28;;;;;;;1.23;0.90;;;;;;;;;;5010118;28;20037;-61
2024/01/08 00:35:54;;;;;;;0.90;0.65;;;;;;;;;;5003606;28;20534;-62
2024/01/08 00:38:20;;;;;;;0.50;0.50;;;;;;;;;;5002516;28;20543;-61
2024/01/08 00:40:46;;;;;;;1.13;0.88;;;;;;;;;;5011532;28;20030;-61
2024/01/08 00:43:12;;;;;;;0.77;0.70;;;;;;;;;;5010218;28;20046;-61
2024/01/08 00:45:39;;;;;;;1.73;0.63;;;;;;;;;;5007233;28;20033;-61
2024/01/08 00:48:05;;;;;;;1.40;0.60;;;;;;;;;;5009093;28;20038;-61
2024/01/08 00:50:40;;;;;;;0.80;0.80;;;;;;;;;;5011158;28;20033;-62
2024/01/08 00:53:06;;;;;;;0.80;0.63;;;;;;;;;;5004150;28;20908;-61
2024/01/08 00:55:32;;;;;;;1.08;1.00;;;;;;;;;;5013271;28;20092;-61
2024/01/08 00:57:58;;;;;;;0.82;0.63;;;;;;;;;;5008400;28;20048;-61
2024/01/08 01:00:24;;;;;;;0.82;0.50;;;;;;;;;;4998558;28;20050;-61
2024/01/08 01:02:50;;;;;;;1.25;0.80;;;;;;;;;;5026358;28;20037;-61
2024/01/08 01:05:16;;;;;;;0.70;0.50;;;;;;;;;;5009156;28;20046;-61
2024/01/08 01:07:42;;;;;;;1.25;0.63;;;;;;;;;;5012172;28;20073;-61
2024/01/08 01:10:08;;;;;;;0.93;0.60;;;;;;;;;;5022570;28;20030;-60
2024/01/08 01:12:34;;;;;;;0.93;0.60;;;;;;;;;;5028051;28;20021;-60
2024/01/08 01:15:00;;;;;;;1.40;0.52;;;;;;;;;;5016183;28;20175;-60
2024/01/08 01:20:30;;;;;;;1.00;0.50;;;;;;;;;;5002781;28;20099;-60
2024/01/08 01:22:56;;;;;;;0.82;0.68;;;;;;;;;;5006687;28;20026;-60
2024/01/08 01:25:22;;;;;;;1.38;0.60;;;;;;;;;;5014386;28;20018;-60
2024/01/08 01:27:48;;;;;;;0.57;0.50;;;;;;;;;;5021507;28;20096;-60
2024/01/08 01:30:14;;;;;;;0.65;0.35;;;;;;;;;;5009899;28;20026;-60
2024/01/08 01:32:40;;;;;;;0.30;0.30;;;;;;;;;;5005669;28;20038;-60
2024/01/08 01:35:06;;;;;;;0.30;0.20;;;;;;;;;;5003915;28;20076;-60
2024/01/08 01:37:32;;;;;;;0.75;0.30;;;;;;;;;;5015693;28;20475;-60
2024/01/08 01:39:58;;;;;;;0.70;0.22;;;;;;;;;;5017586;28;20029;-60
2024/01/08 01:42:24;;;;;;;0.13;0.13;;;;;;;;;;5019536;28;20149;-60
2024/01/08 01:44:50;;;;;;;0.17;0.10;;;;;;;;;;5011342;28;20026;-60
2024/01/08 01:47:16;;;;;;;0.63;0.38;;;;;;;;;;5012260;28;20026;-60
2024/01/08 01:49:42;;;;;;;0.50;0.50;;;;;;;;;;5008309;28;20022;-60
2024/01/08 01:52:09;;;;;;;0.40;0.35;;;;;;;;;;5016737;28;20025;-60
2024/01/08 01:54:39;;;;;;;0.57;0.52;;;;;;;;;;5018107;28;20125;-60
2024/01/08 01:57:05;;;;;;;0.77;0.50;;;;;;;;;;5006559;28;20100;-60
2024/01/08 01:59:32;;;;;;;0.40;0.40;;;;;;;;;;5012822;28;20052;-60
2024/01/08 02:02:01;;;;;;;0.57;0.50;;;;;;;;;;5011763;28;20022;-60
2024/01/08 02:04:30;;;;;;;0.52;0.50;;;;;;;;;;5010390;28;20460;-60
2024/01/08 02:06:56;;;;;;;0.80;0.60;;;;;;;;;;5010711;28;20384;-60
2024/01/08 02:09:22;;;;;;;0.77;0.40;;;;;;;;;;5006043;28;20044;-60
2024/01/08 02:11:48;;;;;;;1.77;0.65;;;;;;;;;;5007970;28;20026;-60
2024/01/08 02:14:15;;;;;;;0.98;0.60;;;;;;;;;;5007874;28;20040;-60
2024/01/08 02:16:42;;;;;;;0.73;0.60;;;;;;;;;;5009415;28;20087;-61
2024/01/08 02:19:09;;;;;;;0.68;0.60;;;;;;;;;;5006005;28;20128;-61
2024/01/08 02:21:35;;;;;;;0.75;0.63;;;;;;;;;;5007859;28;20097;-61
2024/01/08 02:24:01;;;;;;;0.90;0.52;;;;;;;;;;5003982;28;20030;-61
2024/01/08 02:26:27;;;;;;;1.13;0.50;;;;;;;;;;5009125;28;20191;-60
2024/01/08 02:28:53;;;;;;;1.50;0.47;;;;;;;;;;5005947;28;20503;-60
2024/01/08 02:31:20;;;;;;;0.82;0.73;;;;;;;;;;5010079;28;20057;-61
2024/01/08 02:33:46;;;;;;;0.45;0.45;;;;;;;;;;5012320;28;20038;-60
2024/01/08 02:36:12;;;;;;;1.10;0.77;;;;;;;;;;4999193;28;20026;-61
2024/01/08 02:38:38;;;;;;;2.05;0.60;;;;;;;;;;5008991;28;20373;-60
2024/01/08 02:41:04;;;;;;;1.42;0.73;;;;;;;;;;5009003;28;20124;-61
2024/01/08 02:43:32;;;;;;;0.90;0.50;;;;;;;;;;5008035;28;20531;-60
2024/01/08 02:45:58;;;;;;;0.52;0.47;;;;;;;;;;5007048;28;20107;-61
2024/01/08 02:48:24;;;;;;;0.70;0.55;;;;;;;;;;5007851;28;20037;-61
2024/01/08 02:50:50;;;;;;;0.90;0.65;;;;;;;;;;5006938;28;20038;-61
2024/01/08 02:53:16;;;;;;;0.50;0.50;;;;;;;;;;5008080;28;20034;-60
2024/01/08 02:55:42;;;;;;;0.50;0.47;;;;;;;;;;5009034;28;20053;-61
2024/01/08 02:58:08;;;;;;;1.15;0.88;;;;;;;;;;5011895;28;20116;-61
2024/01/08 03:00:34;;;;;;;2.05;0.70;;;;;;;;;;5014356;28;20104;-61
2024/01/08 03:03:00;;;;;;;0.55;0.50;;;;;;;;;;5014341;28;20433;-61
2024/01/08 03:05:26;;;;;;;1.13;0.65;;;;;;;;;;5004661;28;20052;-61
2024/01/08 03:07:52;;;;;;;0.98;0.90;;;;;;;;;;5016971;28;20137;-61
2024/01/08 03:10:18;;;;;;;0.77;0.77;;;;;;;;;;5005066;28;20507;-61
2024/01/08 03:12:44;;;;;;;0.75;0.70;;;;;;;;;;5012235;28;20030;-61
2024/01/08 03:15:10;;;;;;;1.10;0.82;;;;;;;;;;5009049;28;20028;-61
2024/01/08 03:17:36;;;;;;;1.15;0.70;;;;;;;;;;5010423;28;20040;-61
2024/01/08 03:20:03;;;;;;;0.75;0.70;;;;;;;;;;5010825;28;20029;-61
2024/01/08 03:22:29;;;;;;;1.40;0.98;;;;;;;;;;5012101;28;20022;-61
2024/01/08 03:24:55;;;;;;;2.47;0.70;;;;;;;;;;5011980;28;20153;-61
2024/01/08 03:27:21;;;;;;;0.70;0.70;;;;;;;;;;5012156;28;20142;-61
2024/01/08 03:29:47;;;;;;;0.40;0.40;;;;;;;;;;5004499;28;20375;-61
2024/01/08 03:32:13;;;;;;;0.50;0.50;;;;;;;;;;5009265;28;20033;-61
2024/01/08 03:34:42;;;;;;;0.65;0.50;;;;;;;;;;5001331;28;20031;-62
2024/01/08 03:37:09;;;;;;;0.50;0.50;;;;;;;;;;5013499;28;20066;-61
2024/01/08 03:39:35;;;;;;;0.63;0.63;;;;;;;;;;5012849;28;20361;-61
2024/01/08 03:42:01;;;;;;;1.40;0.77;;;;;;;;;;5013357;28;20431;-61
2024/01/08 03:44:27;;;;;;;1.75;0.60;;;;;;;;;;5004993;28;20037;-61
2024/01/08 03:46:53;;;;;;;0.90;0.70;;;;;;;;;;5014269;28;20030;-61
2024/01/08 03:49:19;;;;;;;0.68;0.68;;;;;;;;;;5012520;28;20034;-61
2024/01/08 03:51:46;;;;;;;0.73;0.60;;;;;;;;;;5010978;28;20034;-61
2024/01/08 03:54:40;;;;;;;0.63;0.60;;;;;;;;;;5012392;28;20369;-61
2024/01/08 03:57:06;;;;;;;0.80;0.80;;;;;;;;;;5010842;28;20099;-61
2024/01/08 03:59:32;;;;;;;0.57;0.40;;;;;;;;;;5007641;28;20468;-61
2024/01/08 04:02:29;;;;;;;0.95;0.73;;;;;;;;;;5002619;28;20023;-61
2024/01/08 04:04:55;;;;;;;0.93;0.90;;;;;;;;;;5006359;28;20440;-61
2024/01/08 04:07:21;;;;;;;1.10;0.90;;;;;;;;;;5020780;28;20038;-61
2024/01/08 04:09:47;;;;;;;1.45;0.68;;;;;;;;;;5010492;28;20121;-61
2024/01/08 04:12:13;;;;;;;1.25;1.15;;;;;;;;;;5008405;28;20405;-61
2024/01/08 04:14:39;;;;;;;1.25;0.90;;;;;;;;;;5012923;28;20030;-61
2024/01/08 04:17:08;;;;;;;1.10;1.00;;;;;;;;;;5009057;28;20105;-61
2024/01/08 04:19:34;;;;;;;0.80;0.80;;;;;;;;;;5012512;28;20026;-61
2024/01/08 04:22:00;;;;;;;0.88;0.88;;;;;;;;;;5004998;28;20030;-61
2024/01/08 04:24:26;;;;;;;0.60;0.60;;;;;;;;;;5005831;28;20121;-61
2024/01/08 04:26:52;;;;;;;1.08;0.80;;;;;;;;;;5005663;28;20112;-61
2024/01/08 04:29:18;;;;;;;3.10;1.00;;;;;;;;;;5007218;28;20030;-61
2024/01/08 04:31:44;;;;;;;0.75;0.75;;;;;;;;;;5009148;28;20445;-61
2024/01/08 04:34:10;;;;;;;2.22;0.88;;;;;;;;;;5004169;28;20032;-61
2024/01/08 04:36:43;;;;;;;0.77;0.70;;;;;;;;;;5013779;28;20059;-61
2024/01/08 04:42:16;;;;;;;1.27;0.57;;;;;;;;;;4994072;28;20045;-61
2024/01/08 04:44:42;;;;;;;0.80;0.60;;;;;;;;;;5006457;28;20034;-61
2024/01/08 04:47:08;;;;;;;0.90;0.90;;;;;;;;;;5013664;28;20030;-61
2024/01/08 04:52:38;;;;;;;1.17;0.80;;;;;;;;;;4998011;28;20129;-61
2024/01/08 04:55:04;;;;;;;0.73;0.60;;;;;;;;;;5008801;28;20380;-61
2024/01/08 04:57:30;;;;;;;0.80;0.80;;;;;;;;;;5013401;28;20032;-61
2024/01/08 04:59:56;;;;;;;0.70;0.70;;;;;;;;;;5011498;28;20029;-61
2024/01/08 05:02:22;;;;;;;0.77;0.77;;;;;;;;;;5001455;28;20033;-60
2024/01/08 05:04:48;;;;;;;0.82;0.63;;;;;;;;;;5005451;28;20486;-60
2024/01/08 05:07:14;;;;;;;2.55;0.60;;;;;;;;;;5013128;28;20116;-61
2024/01/08 05:09:40;;;;;;;0.52;0.50;;;;;;;;;;5012922;28;20467;-61
2024/01/08 05:12:06;;;;;;;0.50;0.50;;;;;;;;;;5001668;28;20062;-61
2024/01/08 05:14:32;;;;;;;1.52;0.45;;;;;;;;;;5005143;28;20029;-60
2024/01/08 05:16:58;;;;;;;0.80;0.50;;;;;;;;;;5011991;28;20037;-61
2024/01/08 05:19:24;;;;;;;1.52;0.80;;;;;;;;;;5012257;28;20472;-61
2024/01/08 05:21:53;;;;;;;1.85;0.75;;;;;;;;;;5011662;28;20589;-61
2024/01/08 05:24:19;;;;;;;1.38;0.68;;;;;;;;;;5007860;28;20097;-61
2024/01/08 05:26:45;;;;;;;0.82;0.50;;;;;;;;;;5012959;28;20026;-61
2024/01/08 05:29:11;;;;;;;1.58;0.82;;;;;;;;;;5012622;28;20056;-61
2024/01/08 05:31:37;;;;;;;0.50;0.50;;;;;;;;;;5007152;28;20460;-61
2024/01/08 05:34:03;;;;;;;0.60;0.60;;;;;;;;;;5009811;28;20036;-61
2024/01/08 05:36:29;;;;;;;0.55;0.50;;;;;;;;;;5012485;28;20022;-61
2024/01/08 05:38:59;;;;;;;0.60;0.60;;;;;;;;;;5010797;28;20064;-61
2024/01/08 05:41:25;;;;;;;0.52;0.35;;;;;;;;;;5010161;28;20096;-61
2024/01/08 05:43:51;;;;;;;1.08;0.50;;;;;;;;;;5005226;28;20061;-61
2024/01/08 05:46:17;;;;;;;0.68;0.68;;;;;;;;;;5000027;28;20554;-61
2024/01/08 05:48:43;;;;;;;0.52;0.40;;;;;;;;;;5008193;28;20492;-61
2024/01/08 05:51:10;;;;;;;0.55;0.55;;;;;;;;;;5009361;28;20049;-61
2024/01/08 05:53:36;;;;;;;0.50;0.50;;;;;;;;;;5009671;28;20048;-61
2024/01/08 05:56:03;;;;;;;0.50;0.50;;;;;;;;;;5006549;28;20089;-64
2024/01/08 05:58:29;;;;;;;4.28;0.90;;;;;;;;;;5004085;28;20018;-61
2024/01/08 06:00:57;;;;;;;0.80;0.73;;;;;;;;;;5004678;28;20499;-62
2024/01/08 06:03:23;;;;;;;0.90;0.70;;;;;;;;;;5021043;28;20123;-61
2024/01/08 06:05:49;;;;;;;0.90;0.60;;;;;;;;;;5007597;28;20054;-62
2024/01/08 06:08:15;;;;;;;1.48;0.60;;;;;;;;;;5006245;28;20038;-62
2024/01/08 06:10:41;;;;;;;1.00;0.88;;;;;;;;;;5001770;28;20034;-61
2024/01/08 06:13:09;;;;;;;0.88;0.80;;;;;;;;;;5007722;28;20036;-62
2024/01/08 06:15:35;;;;;;;1.38;0.73;;;;;;;;;;5000027;28;20049;-61
2024/01/08 06:18:01;;;;;;;0.95;0.88;;;;;;;;;;5007725;28;20041;-61
2024/01/08 06:20:27;;;;;;;0.60;0.57;;;;;;;;;;5008420;28;20033;-61
2024/01/08 06:22:53;;;;;;;0.95;0.68;;;;;;;;;;5005102;28;20022;-61
2024/01/08 06:25:19;;;;;;;1.65;0.95;;;;;;;;;;5002647;28;20049;-62
2024/01/08 06:27:45;;;;;;;0.82;0.82;;;;;;;;;;5003502;28;20180;-61
2024/01/08 06:30:12;;;;;;;0.93;0.82;;;;;;;;;;5005205;28;20026;-61
2024/01/08 06:32:38;;;;;;;0.52;0.52;;;;;;;;;;5004309;28;20021;-62
2024/01/08 06:35:04;;;;;;;1.20;0.95;;;;;;;;;;5011362;28;20139;-62
2024/01/08 06:37:30;;;;;;;1.17;1.00;;;;;;;;;;5011312;28;20033;-62
2024/01/08 06:39:56;;;;;;;0.85;0.85;;;;;;;;;;5009113;28;20396;-62
2024/01/08 06:42:22;;;;;;;2.08;1.10;;;;;;;;;;5006932;28;20053;-62
2024/01/08 06:44:48;;;;;;;2.08;1.10;;;;;;;;;;5005251;28;20042;-62
2024/01/08 06:47:14;;;;;;;1.55;1.00;;;;;;;;;;5006899;28;20477;-61
2024/01/08 06:49:40;;;;;;;1.35;1.05;;;;;;;;;;5003028;28;20030;-62
2024/01/08 06:52:06;;;;;;;1.42;1.23;;;;;;;;;;5003007;28;20065;-62
2024/01/08 06:54:32;;;;;;;1.60;1.23;;;;;;;;;;5000608;28;20039;-62
2024/01/08 06:56:58;;;;;;;1.58;0.90;;;;;;;;;;4998337;28;20096;-62
2024/01/08 06:59:24;;;;;;;2.55;1.20;;;;;;;;;;5005351;28;20037;-61
2024/01/08 07:01:51;;;;;;;1.20;1.02;;;;;;;;;;5011984;28;20084;-61
2024/01/08 07:04:17;;;;;;;1.00;0.88;;;;;;;;;;5006827;28;20022;-61
2024/01/08 07:06:44;;;;;;;1.27;0.80;;;;;;;;;;5010771;28;20033;-61
2024/01/08 07:09:10;;;;;;;1.63;1.10;;;;;;;;;;5010721;28;20034;-62
2024/01/08 07:11:36;;;;;;;1.10;0.93;;;;;;;;;;5007267;28;20026;-62
2024/01/08 07:14:03;;;;;;;2.55;1.20;;;;;;;;;;5007283;28;20034;-62
2024/01/08 07:16:29;;;;;;;0.90;0.82;;;;;;;;;;5000646;28;20548;-61
2024/01/08 07:18:55;;;;;;;0.93;0.80;;;;;;;;;;5005628;28;20037;-61
2024/01/08 07:21:22;;;;;;;2.40;1.27;;;;;;;;;;5007898;28;20065;-61
2024/01/08 07:23:49;;;;;;;1.38;0.60;;;;;;;;;;5011336;28;20049;-61
2024/01/08 07:35:33;;;;;;;1.75;0.80;;;;;;;;;;5006137;28;20041;-62
2024/01/08 07:38:00;;;;;;;1.27;0.70;;;;;;;;;;5002984;28;20088;-61
2024/01/08 07:40:26;;;;;;;1.35;0.80;;;;;;;;;;5009552;28;20033;-62
2024/01/08 07:42:53;;;;;;;0.98;0.60;;;;;;;;;;5010851;28;20034;-61
2024/01/08 07:45:19;;;;;;;3.28;1.30;;;;;;;;;;5006100;28;20030;-61
2024/01/08 07:47:45;;;;;;;2.15;0.85;;;;;;;;;;5010819;28;20061;-61
2024/01/08 07:50:11;;;;;;;1.08;0.90;;;;;;;;;;5014888;28;20142;-61
2024/01/08 07:52:37;;;;;;;1.00;1.00;;;;;;;;;;5013554;28;20026;-61
2024/01/08 07:55:04;;;;;;;1.17;0.73;;;;;;;;;;5015248;28;20033;-61
2024/01/08 07:57:30;;;;;;;1.42;1.33;;;;;;;;;;5029188;28;20105;-62
2024/01/08 07:59:59;;;;;;;1.95;0.88;;;;;;;;;;5015046;28;20213;-61
2024/01/08 08:02:25;;;;;;;1.08;0.95;;;;;;;;;;5014447;28;20100;-61
2024/01/08 08:04:52;;;;;;;1.50;1.13;;;;;;;;;;5023383;28;20040;-62
2024/01/08 08:07:19;;;;;;;2.42;1.23;;;;;;;;;;5015150;28;20033;-62
2024/01/08 08:09:45;;;;;;;0.85;0.80;;;;;;;;;;5011363;28;20484;-61
2024/01/08 08:12:11;;;;;;;1.88;1.40;;;;;;;;;;5011238;28;20843;-61
2024/01/08 08:14:37;;;;;;;1.80;1.30;;;;;;;;;;5012062;28;20030;-62
2024/01/08 08:17:03;;;;;;;2.47;1.27;;;;;;;;;;5014479;28;20077;-61
2024/01/08 08:19:29;;;;;;;2.67;1.50;;;;;;;;;;5014681;28;20117;-61
2024/01/08 08:21:56;;;;;;;1.17;1.08;;;;;;;;;;5022989;28;20057;-61
2024/01/08 08:24:22;;;;;;;2.67;1.45;;;;;;;;;;5017631;28;20512;-61
2024/01/08 08:26:48;;;;;;;2.85;1.60;;;;;;;;;;5014144;28;20022;-62
2024/01/08 08:29:14;;;;;;;3.78;1.25;;;;;;;;;;5014193;28;20045;-62
2024/01/08 08:31:40;;;;;;;4.75;1.60;;;;;;;;;;5012404;28;20113;-61
2024/01/08 08:34:06;;;;;;;3.30;2.63;;;;;;;;;;5011200;28;20336;-61
2024/01/08 08:36:32;;;;;;;4.55;2.33;;;;;;;;;;5007553;28;20042;-61
2024/01/08 08:38:58;;;;;;;3.45;1.90;;;;;;;;;;5032980;28;20034;-62
2024/01/08 08:41:24;;;;;;;2.53;1.80;;;;;;;;;;5010220;28;20045;-62
2024/01/08 08:46:53;;;;;;;2.70;2.50;;;;;;;;;;5006979;28;20029;-62
2024/01/08 08:49:20;;;;;;;2.45;1.83;;;;;;;;;;5025379;28;20022;-62
2024/01/08 08:51:46;;;;;;;2.20;1.77;;;;;;;;;;5016265;28;20100;-62
2024/01/08 08:54:12;;;;;;;1.92;1.67;;;;;;;;;;5019238;28;20640;-61
2024/01/08 08:56:39;;;;;;;2.33;1.92;;;;;;;;;;5010645;28;20029;-62
2024/01/08 08:59:05;;;;;;;4.30;1.60;;;;;;;;;;5010721;28;20388;-62
2024/01/08 09:01:31;;;;;;;2.17;1.52;;;;;;;;;;5024215;28;20523;-62
2024/01/08 09:03:57;;;;;;;1.58;1.45;;;;;;;;;;5010281;28;20022;-62
2024/01/08 09:06:24;;;;;;;3.65;1.70;;;;;;;;;;5010238;28;20079;-62
2024/01/08 09:08:53;;;;;;;1.60;1.50;;;;;;;;;;5008582;28;20042;-62
2024/01/08 09:11:19;;;;;;;3.42;2.15;;;;;;;;;;5010148;28;20427;-61
2024/01/08 09:13:46;;;;;;;3.13;2.05;;;;;;;;;;5010425;28;20391;-62
2024/01/08 09:16:14;;;;;;;2.78;2.20;;;;;;;;;;5008601;28;20116;-62
2024/01/08 09:19:01;;;;;;;4.13;2.60;;;;;;;;;;5024152;28;20163;-61
2024/01/08 09:21:27;;;;;;;4.47;2.60;;;;;;;;;;5010064;28;20030;-61
2024/01/08 09:23:53;;;;;;;3.88;2.20;;;;;;;;;;5009826;28;20033;-61
2024/01/08 09:26:19;;;;;;;3.65;2.78;;;;;;;;;;5009526;28;20435;-61
2024/01/08 09:28:45;;;;;;;3.88;2.53;;;;;;;;;;5009738;28;20124;-62
2024/01/08 09:31:11;;;;;;;4.82;3.28;;;;;;;;;;5010413;28;20034;-61
2024/01/08 09:33:37;;;;;;;4.47;2.60;;;;;;;;;;5009949;28;20172;-61
2024/01/08 09:36:04;;;;;;;3.20;2.50;;;;;;;;;;5009719;28;20026;-61
2024/01/08 09:38:30;;;;;;;4.30;2.70;;;;;;;;;;5007942;28;20034;-61
2024/01/08 09:40:56;;;;;;;4.72;2.88;;;;;;;;;;5008537;28;20041;-62
2024/01/08 09:43:22;;;;;;;4.60;3.03;;;;;;;;;;5010108;28;20438;-61
2024/01/08 09:46:06;;;;;;;4.85;2.63;;;;;;;;;;5008777;28;20077;-62
2024/01/08 09:48:33;;;;;;;5.90;2.95;;;;;;;;;;5010068;28;20056;-61
2024/01/08 09:51:03;;;;;;;6.68;3.20;;;;;;;;;;5010869;28;20029;-62
2024/01/08 09:53:29;;;;;;;4.22;2.97;;;;;;;;;;5022074;28;20129;-62
2024/01/08 09:55:56;;;;;;;5.15;2.70;;;;;;;;;;5009040;28;20030;-62
2024/01/08 09:58:22;;;;;;;4.43;2.58;;;;;;;;;;5008935;28;20026;-61
2024/01/08 10:00:49;;;;;;;3.85;2.92;;;;;;;;;;5009771;28;20384;-62
2024/01/08 10:03:15;;;;;;;6.47;3.38;;;;;;;;;;5009553;28;20037;-61
2024/01/08 10:05:41;;;;;;;4.38;2.85;;;;;;;;;;5010372;28;20026;-62
2024/01/08 10:08:07;;;;;;;5.65;2.80;;;;;;;;;;5009697;28;20041;-61
2024/01/08 10:10:33;;;;;;;5.28;2.75;;;;;;;;;;5007959;28;20033;-62
2024/01/08 10:13:00;;;;;;;5.55;2.80;;;;;;;;;;5009169;28;20041;-62
2024/01/08 10:15:26;;;;;;;3.58;2.70;;;;;;;;;;5009596;28;20034;-61
2024/01/08 10:17:52;;;;;;;5.93;3.08;;;;;;;;;;5007817;28;20057;-61
2024/01/08 10:20:19;;;;;;;4.28;3.35;;;;;;;;;;5009413;28;20034;-62
2024/01/08 10:22:45;;;;;;;5.40;3.15;;;;;;;;;;5007967;28;20095;-61
2024/01/08 10:25:11;;;;;;;6.47;3.60;;;;;;;;;;5009214;28;20433;-61
2024/01/08 10:27:37;;;;;;;7.00;4.90;;;;;;;;;;5008909;28;20030;-62
2024/01/08 10:30:04;;;;;;;6.85;3.75;;;;;;;;;;5009362;28;20034;-61
2024/01/08 10:32:30;;;;;;;6.95;4.50;;;;;;;;;;5008237;28;20080;-61
2024/01/08 10:34:59;;;;;;;12.55;4.80;;;;;;;;;;5011839;28;20034;-61
2024/01/08 10:37:25;;;;;;;6.35;4.00;;;;;;;;;;5012080;28;20037;-61
2024/01/08 10:39:51;;;;;;;5.18;3.75;;;;;;;;;;5012074;28;20484;-61
2024/01/08 10:42:17;;;;;;;6.55;3.97;;;;;;;;;;5011756;28;20052;-61
2024/01/08 10:44:43;;;;;;;9.05;4.60;;;;;;;;;;5011980;28;20135;-61
2024/01/08 10:47:10;;;;;;;10.73;4.47;;;;;;;;;;5011701;28;20056;-61
2024/01/08 10:49:36;;;;;;;5.85;4.13;;;;;;;;;;5011842;28;20419;-61
2024/01/08 10:52:11;;;;;;;9.93;4.60;;;;;;;;;;5021429;28;20108;-61
2024/01/08 10:54:40;;;;;;;11.38;5.82;;;;;;;;;;5014848;28;20099;-61
2024/01/08 10:57:11;;;;;;;7.35;4.38;;;;;;;;;;5010419;28;20022;-61
2024/01/08 10:59:37;;;;;;;6.50;4.10;;;;;;;;;;5011890;28;20030;-61
2024/01/08 11:02:03;;;;;;;6.72;4.13;;;;;;;;;;5011850;28;20049;-61
2024/01/08 11:04:31;;;;;;;6.88;4.05;;;;;;;;;;5011913;28;20084;-61
2024/01/08 11:06:57;;;;;;;7.75;4.57;;;;;;;;;;5010791;28;20056;-61
2024/01/08 11:09:27;;;;;;;5.22;3.65;;;;;;;;;;5010858;28;20040;-61
2024/01/08 11:11:54;;;;;;;5.57;3.70;;;;;;;;;;5009507;28;20100;-61
2024/01/08 11:14:20;;;;;;;5.10;4.20;;;;;;;;;;5015629;28;20419;-61
2024/01/08 11:22:54;;;;;;;6.00;3.88;;;;;;;;;;5009359;28;20174;-61
2024/01/08 11:25:20;;;;;;;7.38;4.15;;;;;;;;;;5014738;28;20388;-61
2024/01/08 11:27:46;;;;;;;6.65;4.07;;;;;;;;;;5014021;28;20048;-62
2024/01/08 11:30:12;;;;;;;8.13;4.53;;;;;;;;;;5002480;28;20053;-61
2024/01/08 11:32:48;;;;;;;9.88;4.30;;;;;;;;;;5010484;28;20029;-62
2024/01/08 11:35:17;;;;;;;9.98;5.35;;;;;;;;;;5013808;28;20022;-63
2024/01/08 11:37:44;;;;;;;12.70;8.93;;;;;;;;;;5022563;28;20542;-62
2024/01/08 11:40:10;;;;;;;10.60;5.97;;;;;;;;;;5014054;28;20464;-61
2024/01/08 11:42:36;;;;;;;10.45;5.68;;;;;;;;;;5012298;28;20109;-61
2024/01/08 11:45:02;;;;;;;8.75;4.70;;;;;;;;;;5004086;28;20108;-62
2024/01/08 11:47:32;;;;;;;11.30;5.55;;;;;;;;;;5013568;28;20034;-61
2024/01/08 11:49:58;;;;;;;9.82;5.50;;;;;;;;;;5015069;28;20026;-61
2024/01/08 11:52:26;;;;;;;8.73;4.60;;;;;;;;;;5015023;28;20034;-61
2024/01/08 11:54:54;;;;;;;12.98;4.93;;;;;;;;;;5015311;28;20109;-62
2024/01/08 11:57:20;;;;;;;6.55;4.82;;;;;;;;;;5015033;28;20028;-62
2024/01/08 11:59:46;;;;;;;6.15;5.07;;;;;;;;;;5014903;28;20034;-61
2024/01/08 12:02:19;;;;;;;5.78;4.60;;;;;;;;;;5014911;28;20463;-62
2024/01/08 12:04:51;;;;;;;9.02;5.32;;;;;;;;;;5015078;28;20017;-62
2024/01/08 12:07:17;;;;;;;7.97;4.88;;;;;;;;;;5014609;28;20060;-62
2024/01/08 12:09:43;;;;;;;13.93;6.32;;;;;;;;;;5014977;28;20050;-62
2024/01/08 12:12:10;;;;;;;11.10;6.40;;;;;;;;;;5028570;28;20072;-62
2024/01/08 12:14:40;;;;;;;7.18;4.75;;;;;;;;;;5014476;28;20117;-62
2024/01/08 12:17:07;;;;;;;9.02;5.30;;;;;;;;;;5014418;28;20029;-62
2024/01/08 12:19:35;;;;;;;10.82;6.13;;;;;;;;;;5014557;28;20417;-61
2024/01/08 12:22:02;;;;;;;7.45;5.90;;;;;;;;;;5012226;28;20507;-61
2024/01/08 12:24:28;;;;;;;9.20;6.38;;;;;;;;;;5011614;28;20396;-60
2024/01/08 12:27:00;;;;;;;9.13;6.53;;;;;;;;;;5011215;28;20022;-61
2024/01/08 12:29:26;;;;;;;8.95;5.80;;;;;;;;;;5009689;28;20054;-61
2024/01/08 12:31:56;;;;;;;12.35;6.60;;;;;;;;;;5015376;28;20108;-61
2024/01/08 12:40:51;;;;;;;7.63;6.15;;;;;;;;;;4997571;28;20102;-61
2024/01/08 12:43:19;;;;;;;9.75;5.50;;;;;;;;;;5001884;28;20465;-61
2024/01/08 12:45:50;;;;;;;8.55;5.95;;;;;;;;;;5014137;28;20018;-61
2024/01/08 12:48:17;;;;;;;7.03;4.85;;;;;;;;;;5013311;28;20040;-61
2024/01/08 12:50:43;;;;;;;9.40;5.47;;;;;;;;;;5013903;28;20476;-61
2024/01/08 12:53:09;;;;;;;8.00;5.80;;;;;;;;;;5013963;28;20055;-61
2024/01/08 12:55:37;;;;;;;6.75;5.78;;;;;;;;;;5007352;28;20480;-61
2024/01/08 12:58:03;;;;;;;10.95;7.88;;;;;;;;;;5011368;28;20030;-61
2024/01/08 13:00:30;;;;;;;10.93;6.70;;;;;;;;;;5012160;28;20029;-61
2024/01/08 13:02:56;;;;;;;9.40;6.25;;;;;;;;;;5013820;28;20026;-61
2024/01/08 13:05:22;;;;;;;11.43;6.40;;;;;;;;;;5013815;28;20080;-61
2024/01/08 13:07:48;;;;;;;9.93;5.88;;;;;;;;;;5013804;28;20070;-61
2024/01/08 13:10:14;;;;;;;13.15;6.93;;;;;;;;;;5013468;28;20116;-61
2024/01/08 13:12:40;;;;;;;10.95;6.38;;;;;;;;;;5013391;28;20097;-61
2024/01/08 13:15:07;;;;;;;9.32;6.68;;;;;;;;;;5013441;28;20028;-61
2024/01/08 13:17:33;;;;;;;11.60;6.97;;;;;;;;;;5011962;28;20029;-61
2024/01/08 13:19:59;;;;;;;7.82;6.68;;;;;;;;;;5005281;28;20027;-61
2024/01/08 13:22:25;;;;;;;11.35;7.63;;;;;;;;;;5041274;28;20033;-60
2024/01/08 13:24:51;;;;;;;15.63;7.38;;;;;;;;;;5013286;28;20038;-61
2024/01/08 13:27:17;;;;;;;11.25;7.25;;;;;;;;;;5012950;28;20032;-61
2024/01/08 13:29:43;;;;;;;8.13;6.20;;;;;;;;;;5012631;28;20040;-61
2024/01/08 13:32:10;;;;;;;7.20;5.47;;;;;;;;;;5012760;28;20114;-61
2024/01/08 13:34:36;;;;;;;8.65;7.13;;;;;;;;;;5012963;28;20032;-61
2024/01/08 13:37:02;;;;;;;9.38;5.43;;;;;;;;;;5003816;28;20189;-61
2024/01/08 13:39:29;;;;;;;7.72;6.40;;;;;;;;;;5009948;28;20105;-61
2024/01/08 13:41:55;;;;;;;7.88;6.20;;;;;;;;;;5006606;28;20052;-61
2024/01/08 13:44:21;;;;;;;9.38;5.78;;;;;;;;;;5012679;28;20081;-61
2024/01/08 13:46:47;;;;;;;8.18;6.00;;;;;;;;;;5011622;28;20488;-61
2024/01/08 13:49:13;;;;;;;7.90;5.50;;;;;;;;;;5012684;28;20125;-61
2024/01/08 13:51:39;;;;;;;8.55;6.72;;;;;;;;;;5012652;28;20093;-61
2024/01/08 13:54:07;;;;;;;9.15;6.07;;;;;;;;;;5012461;28;20025;-62
2024/01/08 13:56:34;;;;;;;11.30;5.45;;;;;;;;;;4999754;28;20101;-61
2024/01/08 13:59:00;;;;;;;9.40;5.93;;;;;;;;;;5012838;28;20029;-61
2024/01/08 14:01:26;;;;;;;7.57;5.95;;;;;;;;;;5012517;28;20030;-61
2024/01/08 14:03:52;;;;;;;7.18;5.05;;;;;;;;;;5012713;28;20030;-61
2024/01/08 14:06:18;;;;;;;7.15;5.70;;;;;;;;;;5012906;28;20029;-62
2024/01/08 14:08:44;;;;;;;8.82;5.70;;;;;;;;;;5007862;28;20038;-61
2024/01/08 14:11:10;;;;;;;10.63;6.30;;;;;;;;;;5003655;28;20061;-61
2024/01/08 14:13:36;;;;;;;10.48;6.10;;;;;;;;;;5010905;28;20477;-60
2024/01/08 14:16:03;;;;;;;6.60;5.38;;;;;;;;;;5012389;28;20024;-61
2024/01/08 14:18:30;;;;;;;7.68;6.70;;;;;;;;;;5010348;28;20080;-62
2024/01/08 14:20:56;;;;;;;7.18;5.88;;;;;;;;;;5009704;28;20014;-62
2024/01/08 14:23:22;;;;;;;8.55;5.82;;;;;;;;;;5012636;28;20112;-61
2024/01/08 14:25:48;;;;;;;6.85;5.80;;;;;;;;;;5010913;28;20057;-61
2024/01/08 14:28:14;;;;;;;8.93;5.68;;;;;;;;;;5010670;28;20069;-61
2024/01/08 14:30:40;;;;;;;11.50;6.63;;;;;;;;;;5011927;28;20032;-60
2024/01/08 14:33:06;;;;;;;9.60;6.20;;;;;;;;;;5001929;28;20037;-61
2024/01/08 14:35:32;;;;;;;6.20;5.32;;;;;;;;;;5001147;28;20030;-61
2024/01/08 14:37:58;;;;;;;6.30;5.50;;;;;;;;;;5010750;28;20391;-61
2024/01/08 14:40:27;;;;;;;6.15;4.95;;;;;;;;;;5012377;28;20025;-61
2024/01/08 14:43:00;;;;;;;8.10;5.05;;;;;;;;;;5009629;28;20395;-61
2024/01/08 14:45:26;;;;;;;7.50;5.55;;;;;;;;;;5011990;28;20026;-61
2024/01/08 14:47:52;;;;;;;7.50;5.57;;;;;;;;;;4999697;28;20034;-61
2024/01/08 14:50:18;;;;;;;8.30;5.30;;;;;;;;;;5012073;28;20056;-61
2024/01/08 14:52:44;;;;;;;7.47;5.68;;;;;;;;;;5011584;28;20041;-60
2024/01/08 14:55:10;;;;;;;9.20;6.10;;;;;;;;;;5010514;28;20476;-60
2024/01/08 14:57:36;;;;;;;10.88;6.10;;;;;;;;;;5011722;28;20081;-61
2024/01/08 15:00:06;;;;;;;9.10;6.00;;;;;;;;;;5010702;28;20120;-61
2024/01/08 15:02:32;;;;;;;9.82;5.80;;;;;;;;;;5011836;28;20029;-60
2024/01/08 15:04:58;;;;;;;8.70;5.45;;;;;;;;;;5011888;28;20026;-61
2024/01/08 15:07:24;;;;;;;10.23;6.40;;;;;;;;;;5011719;28;20041;-61
2024/01/08 15:09:50;;;;;;;7.85;5.53;;;;;;;;;;5011390;28;20142;-61
2024/01/08 15:12:16;;;;;;;8.85;6.60;;;;;;;;;;5011781;28;20037;-61
2024/01/08 15:14:42;;;;;;;8.45;5.95;;;;;;;;;;5011602;28;20033;-61